Time;durP1;ratioP1;P1;durP2;ratioP2;P2;SDS_P1;SDS_P2;PMS_P1;PMS_P2;Temp;Humidity;BMP_temperature;BMP_pressure;BME280_temperature;BME280_humidity;BME280_pressure;Samples;Min_cycle;Max_cycle;Signal;HPM_P1;HPM_P2
2023/05/07 00:00:09;;;;;;;9.35;4.32;;;14.40;99.90;;;13.86;100.00;101150.69;4120028;28;20027;-72
2023/05/07 00:02:10;;;;;;;12.02;3.90;;;14.50;99.90;;;13.90;100.00;101152.03;4134766;28;20029;-73
2023/05/07 00:04:11;;;;;;;9.60;3.17;;;14.50;99.90;;;13.91;100.00;101137.78;4134964;28;20073;-72
2023/05/07 00:06:12;;;;;;;8.68;3.55;;;14.50;99.90;;;13.84;100.00;101128.81;4119937;28;20019;-72
2023/05/07 00:08:13;;;;;;;10.63;3.50;;;14.60;99.90;;;13.96;100.00;101139.91;4134603;28;20065;-72
2023/05/07 00:10:14;;;;;;;12.90;4.78;;;14.60;99.90;;;14.02;100.00;101149.84;4118424;28;20042;-72
2023/05/07 00:12:15;;;;;;;7.50;3.38;;;14.70;99.90;;;14.07;100.00;101150.16;4118582;28;20479;-72
2023/05/07 00:14:15;;;;;;;8.57;3.58;;;14.70;99.90;;;14.09;100.00;101156.97;4119959;28;20041;-72
2023/05/07 00:16:16;;;;;;;12.13;3.55;;;14.70;99.90;;;14.13;100.00;101150.31;4134827;28;20062;-72
2023/05/07 00:18:20;;;;;;;8.10;3.38;;;14.80;99.90;;;14.19;100.00;101159.44;4119992;28;20027;-72
2023/05/07 00:20:21;;;;;;;;;;;14.80;99.90;;;14.16;100.00;101152.63;4135084;28;20102;-72
2023/05/07 00:22:22;;;;;;;7.55;3.30;;;14.90;99.90;;;14.20;100.00;101142.53;4118856;28;19910;-72
2023/05/07 00:24:23;;;;;;;12.38;4.05;;;14.90;99.90;;;14.25;100.00;101145.47;4119579;28;20030;-72
2023/05/07 00:26:24;;;;;;;7.43;3.53;;;14.90;99.90;;;14.33;100.00;101146.34;4134835;28;20038;-72
2023/05/07 00:28:25;;;;;;;10.95;3.40;;;15.00;99.90;;;14.36;100.00;101151.31;4134816;28;20031;-72
2023/05/07 00:30:26;;;;;;;7.55;3.75;;;15.00;99.90;;;14.36;100.00;101150.47;4119938;28;20022;-72
2023/05/07 00:32:27;;;;;;;12.48;3.33;;;15.00;99.90;;;14.42;100.00;101154.28;4134833;28;20030;-72
2023/05/07 00:34:28;;;;;;;6.30;3.10;;;15.00;99.90;;;14.45;100.00;101151.28;4119124;28;20023;-72
2023/05/07 00:36:29;;;;;;;10.32;3.72;;;15.10;99.90;;;14.46;100.00;101152.91;4123051;28;20050;-72
2023/05/07 00:38:30;;;;;;;12.07;4.05;;;15.10;99.90;;;14.50;100.00;101164.84;4123260;28;20383;-72
2023/05/07 00:40:30;;;;;;;10.77;3.35;;;15.10;99.90;;;14.51;100.00;101156.75;4137574;28;20039;-72
2023/05/07 00:42:32;;;;;;;10.25;3.70;;;15.10;99.90;;;14.53;100.00;101161.88;4137639;28;20031;-72
2023/05/07 00:44:33;;;;;;;9.07;3.60;;;15.10;99.90;;;14.52;100.00;101157.53;4122955;28;20051;-72
2023/05/07 00:46:34;;;;;;;13.65;3.25;;;15.20;99.90;;;14.52;100.00;101158.38;4137752;28;20053;-72
2023/05/07 00:48:35;;;;;;;8.88;2.92;;;15.20;99.90;;;14.57;100.00;101166.69;4137782;28;20061;-72
2023/05/07 00:50:36;;;;;;;8.20;3.30;;;15.20;99.90;;;14.57;100.00;101166.69;4121486;28;20019;-72
2023/05/07 00:52:37;;;;;;;12.52;3.30;;;15.20;99.90;;;14.60;100.00;101162.84;4137748;28;20118;-72
2023/05/07 00:54:40;;;;;;;6.88;3.10;;;15.20;99.90;;;14.58;100.00;101149.72;4137665;28;20548;-72
2023/05/07 00:56:41;;;;;;;6.47;3.15;;;15.20;99.90;;;14.57;100.00;101145.44;4137629;28;20239;-72
2023/05/07 00:58:42;;;;;;;10.40;3.25;;;15.20;99.90;;;14.56;100.00;101149.06;4137502;28;20093;-72
2023/05/07 01:00:43;;;;;;;8.48;3.20;;;15.20;99.90;;;14.56;100.00;101145.59;4122726;28;20027;-73
2023/05/07 01:02:44;;;;;;;7.07;3.42;;;15.20;99.90;;;14.49;100.00;101142.78;4122827;28;20471;-72
2023/05/07 01:04:45;;;;;;;7.88;3.15;;;15.20;99.90;;;14.51;100.00;101145.28;4137460;28;20461;-72
2023/05/07 01:06:46;;;;;;;7.43;2.60;;;15.20;99.90;;;14.55;100.00;101149.22;4105061;29;20027;-72
2023/05/07 01:08:50;;;;;;;8.00;3.28;;;15.20;99.90;;;14.56;100.00;101156.22;4121450;28;20581;-72
2023/05/07 01:10:51;;;;;;;11.88;3.47;;;15.20;99.90;;;14.57;100.00;101164.03;4137028;28;20022;-72
2023/05/07 01:12:53;;;;;;;6.47;3.33;;;15.20;99.90;;;14.51;100.00;101148.78;4122463;28;20117;-72
2023/05/07 01:14:54;;;;;;;7.95;3.00;;;15.20;99.90;;;14.55;100.00;101155.38;4137175;28;20027;-72
2023/05/07 01:16:55;;;;;;;9.88;3.25;;;15.20;99.90;;;14.54;100.00;101143.13;4122528;28;20058;-72
2023/05/07 01:18:56;;;;;;;8.60;4.22;;;15.20;99.90;;;14.57;100.00;101157.88;4137363;28;20037;-72
2023/05/07 01:20:59;;;;;;;7.65;2.75;;;15.20;99.90;;;14.55;100.00;101146.56;4121042;28;20082;-72
2023/05/07 01:23:02;;;;;;;7.97;3.20;;;15.20;99.90;;;14.52;100.00;101133.66;4137112;28;20033;-72
2023/05/07 01:25:05;;;;;;;7.57;3.35;;;15.20;99.90;;;14.54;100.00;101144.94;4136954;28;20321;-72
2023/05/07 01:27:06;;;;;;;7.75;3.13;;;15.20;99.90;;;14.52;100.00;101138.97;4121111;28;20035;-72
2023/05/07 01:29:07;;;;;;;10.00;3.60;;;15.20;99.90;;;14.52;100.00;101139.78;4122376;28;20026;-72
2023/05/07 01:31:09;;;;;;;8.18;3.40;;;15.20;99.90;;;14.51;100.00;101142.63;4137159;28;20030;-72
2023/05/07 01:33:13;;;;;;;9.95;3.30;;;15.10;99.90;;;14.51;100.00;101147.94;4121346;28;20114;-72
2023/05/07 01:35:22;;;;;;;11.00;2.90;;;15.10;99.90;;;14.43;100.00;101142.63;4136909;28;20038;-72
2023/05/07 01:37:24;;;;;;;6.38;2.42;;;15.10;99.90;;;14.36;100.00;101140.69;4136928;28;20465;-72
2023/05/07 01:39:27;;;;;;;9.07;3.20;;;15.00;99.90;;;14.30;100.00;101141.34;4136741;28;20049;-72
2023/05/07 01:41:28;;;;;;;7.38;2.55;;;14.90;99.90;;;14.24;100.00;101134.06;4122203;28;20030;-72
2023/05/07 01:43:30;;;;;;;7.70;3.08;;;14.90;99.90;;;14.23;100.00;101137.72;4121764;28;20077;-72
2023/05/07 01:45:32;;;;;;;9.98;2.95;;;14.80;99.90;;;14.18;100.00;101132.09;4136510;28;20031;-72
2023/05/07 01:47:33;;;;;;;6.15;2.55;;;14.80;99.90;;;14.15;100.00;101129.78;4120009;28;20046;-72
2023/05/07 01:49:34;;;;;;;5.57;2.38;;;14.80;99.90;;;14.04;100.00;101124.81;4121061;28;20014;-72
2023/05/07 01:51:36;;;;;;;7.05;2.85;;;14.70;99.90;;;14.12;100.00;101138.06;4136872;28;20429;-72
2023/05/07 01:53:38;;;;;;;7.65;2.97;;;14.70;99.90;;;14.09;100.00;101138.41;4136971;28;20022;-72
2023/05/07 01:55:39;;;;;;;8.90;4.20;;;14.70;99.90;;;14.13;100.00;101141.53;4136632;28;20078;-72
2023/05/07 01:57:40;;;;;;;9.35;3.13;;;14.70;99.90;;;14.15;100.00;101142.22;4121904;28;20030;-72
2023/05/07 01:59:41;;;;;;;7.85;2.60;;;14.80;99.90;;;14.15;100.00;101151.00;4121826;28;20035;-72
2023/05/07 02:01:42;;;;;;;5.50;2.30;;;14.80;99.90;;;14.20;100.00;101151.31;4136868;28;20026;-72
2023/05/07 02:03:43;;;;;;;6.03;2.47;;;14.80;99.90;;;14.22;100.00;101157.28;4121708;28;20038;-72
2023/05/07 02:05:44;;;;;;;5.82;2.13;;;14.80;99.90;;;14.24;100.00;101151.81;4121888;28;20059;-72
2023/05/07 02:07:45;;;;;;;5.30;2.80;;;14.90;99.90;;;14.27;100.00;101152.31;4136301;28;20699;-72
2023/05/07 02:09:46;;;;;;;6.57;2.85;;;14.90;99.90;;;14.28;100.00;101153.09;4121327;28;20043;-72
2023/05/07 02:11:47;;;;;;;8.30;2.72;;;14.90;99.90;;;14.28;100.00;101156.59;4136529;28;20501;-72
2023/05/07 02:13:48;;;;;;;7.03;2.70;;;14.90;99.90;;;14.26;100.00;101163.91;4120425;28;20023;-72
2023/05/07 02:15:50;;;;;;;4.63;2.25;;;14.90;99.90;;;14.26;100.00;101165.72;4136359;28;20026;-72
2023/05/07 02:18:06;;;;;;;6.88;2.42;;;14.90;99.90;;;14.29;100.00;101165.38;4121521;28;20112;-72
2023/05/07 02:20:13;;;;;;;6.90;2.30;;;14.90;99.90;;;14.27;100.00;101162.09;4121641;28;20031;-72
2023/05/07 02:22:13;;;;;;;7.13;2.60;;;14.90;99.90;;;14.27;100.00;101151.47;4121539;28;20070;-72
2023/05/07 02:24:14;;;;;;;8.52;2.40;;;14.90;99.90;;;14.34;100.00;101158.59;4135977;28;20030;-72
2023/05/07 02:26:15;;;;;;;5.90;2.42;;;15.00;99.90;;;14.35;100.00;101159.44;4119930;28;20023;-72
2023/05/07 02:28:16;;;;;;;4.88;2.03;;;15.00;99.90;;;14.36;100.00;101161.94;4121404;28;20419;-72
2023/05/07 02:30:17;;;;;;;7.80;3.60;;;15.00;99.90;;;14.36;100.00;101156.63;4121435;28;20081;-72
2023/05/07 02:32:18;;;;;;;5.28;2.22;;;15.00;99.90;;;14.40;100.00;101171.19;4136138;28;20080;-72
2023/05/07 02:34:20;;;;;;;4.50;2.53;;;15.10;99.90;;;14.43;100.00;101172.66;4136410;28;20030;-72
2023/05/07 02:36:20;;;;;;;7.60;2.35;;;15.00;99.90;;;14.44;100.00;101173.50;4121536;28;20037;-72
2023/05/07 02:38:23;;;;;;;6.20;1.88;;;15.10;99.90;;;14.44;100.00;101181.47;4121172;28;20027;-72
2023/05/07 02:40:24;;;;;;;7.47;2.60;;;15.10;99.90;;;14.40;100.00;101173.84;4120614;28;20030;-72
2023/05/07 02:42:25;;;;;;;6.45;2.83;;;15.10;99.90;;;14.35;100.00;101176.19;4120713;28;20470;-72
2023/05/07 02:44:26;;;;;;;8.90;2.83;;;15.10;99.90;;;14.37;100.00;101187.44;4120868;28;20122;-72
2023/05/07 02:46:26;;;;;;;6.95;3.15;;;15.10;99.90;;;14.40;100.00;101188.94;4121099;28;20081;-72
2023/05/07 02:48:27;;;;;;;5.05;2.17;;;15.10;99.90;;;14.41;100.00;101190.59;4103698;28;20024;-72
2023/05/07 02:50:28;;;;;;;5.82;2.22;;;15.00;99.90;;;14.40;100.00;101195.06;4120942;28;20390;-72
2023/05/07 02:52:29;;;;;;;8.50;2.50;;;15.10;99.90;;;14.40;100.00;101194.25;4121033;28;20026;-72
2023/05/07 02:54:30;;;;;;;10.32;3.15;;;15.10;99.90;;;14.42;100.00;101200.22;4120746;28;20037;-72
2023/05/07 02:56:31;;;;;;;4.47;2.20;;;15.10;99.90;;;14.41;100.00;101201.22;4135681;28;20486;-72
2023/05/07 02:58:32;;;;;;;8.88;2.65;;;15.10;99.90;;;14.38;100.00;101193.59;4120672;28;20564;-72
2023/05/07 03:00:33;;;;;;;3.67;2.30;;;15.10;99.90;;;14.38;100.00;101201.56;4135857;28;20045;-72
2023/05/07 03:02:33;;;;;;;6.07;2.25;;;15.00;99.90;;;14.28;100.00;101193.75;4119554;28;20034;-72
2023/05/07 03:04:34;;;;;;;5.28;2.58;;;15.00;99.90;;;14.34;100.00;101206.38;4120723;28;20443;-72
2023/05/07 03:06:35;;;;;;;5.07;2.50;;;15.00;99.90;;;14.33;100.00;101214.50;4120382;28;20027;-72
2023/05/07 03:08:36;;;;;;;6.03;2.47;;;15.00;99.90;;;14.34;100.00;101217.00;4135592;28;20030;-72
2023/05/07 03:10:37;;;;;;;6.25;2.17;;;15.00;99.90;;;14.34;100.00;101211.69;4120540;28;20018;-72
2023/05/07 03:12:38;;;;;;;4.53;2.30;;;15.00;99.90;;;14.29;100.00;101213.16;4135744;28;20372;-72
2023/05/07 03:14:39;;;;;;;3.65;2.00;;;15.00;99.90;;;14.32;100.00;101212.81;4134978;28;20038;-72
2023/05/07 03:16:40;;;;;;;3.78;2.47;;;15.00;99.90;;;14.35;100.00;101218.66;4120663;28;20035;-72
2023/05/07 03:18:41;;;;;;;3.55;2.05;;;15.00;99.90;;;14.31;100.00;101217.28;4135447;28;20494;-72
2023/05/07 03:20:41;;;;;;;3.83;1.58;;;15.00;99.90;;;14.33;100.00;101223.31;4103276;28;20507;-72
2023/05/07 03:22:42;;;;;;;4.80;1.98;;;15.00;99.90;;;14.29;100.00;101221.13;4120511;28;20041;-72
2023/05/07 03:24:43;;;;;;;2.25;1.33;;;15.00;99.90;;;14.21;100.00;101226.44;4135398;28;20034;-72
2023/05/07 03:26:44;;;;;;;2.90;1.08;;;14.90;99.90;;;14.18;100.00;101222.31;4120503;28;20030;-72
2023/05/07 03:28:45;;;;;;;2.90;1.08;;;14.90;99.90;;;14.17;100.00;101225.09;4120344;28;20035;-72
2023/05/07 03:30:46;;;;;;;3.35;1.20;;;14.80;99.90;;;14.16;100.00;101226.94;4135193;28;20030;-72
2023/05/07 03:32:46;;;;;;;2.35;0.95;;;14.80;99.90;;;14.16;100.00;101229.59;4120448;28;20031;-72
2023/05/07 03:34:47;;;;;;;2.15;0.90;;;14.80;99.90;;;14.11;100.00;101220.47;4120464;28;20030;-71
2023/05/07 03:36:49;;;;;;;2.60;0.90;;;14.80;99.90;;;14.10;100.00;101224.94;4135249;28;20038;-72
2023/05/07 03:38:50;;;;;;;1.90;0.93;;;14.80;99.90;;;14.06;100.00;101234.25;4135368;28;20023;-72
2023/05/07 03:40:51;;;;;;;2.03;0.93;;;14.80;99.90;;;14.04;100.00;101238.88;4118800;28;20073;-72
2023/05/07 03:42:52;;;;;;;2.22;1.00;;;14.70;99.90;;;14.00;100.00;101240.22;4119105;28;20529;-72
2023/05/07 03:44:53;;;;;;;3.30;1.10;;;14.70;99.90;;;13.97;100.00;101237.91;4135110;28;20085;-72
2023/05/07 03:46:54;;;;;;;1.77;0.95;;;14.70;99.90;;;13.95;100.00;101234.56;4120168;28;20483;-72
2023/05/07 03:48:55;;;;;;;1.30;0.93;;;14.60;99.90;;;13.86;100.00;101230.25;4135016;28;20034;-72
2023/05/07 03:50:57;;;;;;;2.97;1.00;;;14.60;99.90;;;13.92;100.00;101242.84;4120432;28;20050;-72
2023/05/07 03:52:58;;;;;;;2.72;0.90;;;14.60;99.90;;;13.89;100.00;101247.69;4120162;28;20027;-72
2023/05/07 03:54:59;;;;;;;1.10;0.65;;;14.60;99.90;;;13.93;100.00;101248.97;4119882;28;20391;-72
2023/05/07 03:57:00;;;;;;;1.75;0.70;;;14.50;99.90;;;13.91;100.00;101232.41;4120068;28;20027;-72
2023/05/07 03:59:01;;;;;;;1.83;0.80;;;14.50;99.90;;;13.89;100.00;101242.38;4120078;28;20023;-72
2023/05/07 04:01:02;;;;;;;3.28;0.93;;;14.50;99.90;;;13.89;100.00;101243.19;4134713;28;20045;-72
2023/05/07 04:03:04;;;;;;;1.63;0.75;;;14.50;99.90;;;13.85;100.00;101247.19;4120024;28;20037;-72
2023/05/07 04:05:05;;;;;;;1.52;0.85;;;14.50;99.90;;;13.80;100.00;101247.66;4120006;28;20034;-72
2023/05/07 04:07:07;;;;;;;2.40;1.05;;;14.40;99.90;;;13.76;100.00;101237.56;4134912;28;20037;-72
2023/05/07 04:09:08;;;;;;;3.03;1.02;;;14.40;99.90;;;13.69;100.00;101233.88;4119239;28;20398;-72
2023/05/07 04:11:09;;;;;;;1.50;0.93;;;14.40;99.90;;;13.68;100.00;101238.34;4118750;28;20506;-72
2023/05/07 04:13:10;;;;;;;2.88;0.93;;;14.40;99.90;;;13.66;100.00;101245.66;4120006;28;20027;-72
2023/05/07 04:15:11;;;;;;;1.40;1.02;;;14.30;99.90;;;13.62;100.00;101243.50;4134987;28;20117;-72
2023/05/07 04:17:12;;;;;;;1.45;0.90;;;14.30;99.90;;;13.49;100.00;101230.72;4119956;28;20071;-72
2023/05/07 04:19:12;;;;;;;2.92;1.40;;;14.30;99.90;;;13.62;100.00;101251.47;4119868;28;20077;-72
2023/05/07 04:21:18;;;;;;;2.60;0.95;;;14.30;99.90;;;13.59;100.00;101241.19;4134639;28;20026;-72
2023/05/07 04:23:19;;;;;;;1.35;0.80;;;14.30;99.90;;;13.62;100.00;101241.66;4134794;28;20026;-72
2023/05/07 04:25:20;;;;;;;1.45;0.90;;;14.30;99.90;;;13.63;100.00;101243.31;4118461;28;20023;-72
2023/05/07 04:27:21;;;;;;;2.05;0.88;;;14.30;99.90;;;13.61;100.00;101233.88;4119877;28;20023;-72
2023/05/07 04:29:22;;;;;;;1.95;1.00;;;14.30;99.90;;;13.62;100.00;101240.84;4119757;28;20030;-72
2023/05/07 04:31:22;;;;;;;3.15;1.70;;;14.30;99.90;;;13.61;100.00;101240.03;4135001;28;20026;-72
2023/05/07 04:33:23;;;;;;;2.85;1.30;;;14.30;99.90;;;13.55;100.00;101229.25;4119874;28;20474;-72
2023/05/07 04:35:24;;;;;;;2.58;1.25;;;14.20;99.90;;;13.59;100.00;101241.19;4119802;28;20019;-72
2023/05/07 04:37:26;;;;;;;2.75;1.27;;;14.20;99.90;;;13.54;100.00;101246.13;4119715;28;20122;-71
2023/05/07 04:39:27;;;;;;;3.28;1.08;;;14.20;99.90;;;13.51;100.00;101246.44;4133687;28;20662;-72
2023/05/07 04:41:28;;;;;;;1.40;0.98;;;14.20;99.90;;;13.47;100.00;101245.94;4118670;28;20035;-71
2023/05/07 04:43:29;;;;;;;1.50;1.25;;;14.20;99.90;;;13.44;100.00;101243.59;4119552;28;20502;-72
2023/05/07 04:45:30;;;;;;;2.13;1.17;;;14.10;99.90;;;13.42;100.00;101252.72;4134452;28;20022;-72
2023/05/07 04:47:31;;;;;;;2.13;1.38;;;14.10;99.90;;;13.39;100.00;101251.22;4119829;28;20033;-71
2023/05/07 04:49:32;;;;;;;2.40;1.60;;;14.10;99.90;;;13.34;100.00;101247.41;4134393;28;20030;-72
2023/05/07 04:51:33;;;;;;;4.10;1.88;;;14.00;99.90;;;13.27;100.00;101242.75;4134682;28;20526;-72
2023/05/07 04:53:33;;;;;;;2.42;1.27;;;14.00;99.90;;;13.20;100.00;101233.78;4118560;28;20091;-72
2023/05/07 04:55:34;;;;;;;2.55;1.30;;;13.90;99.90;;;13.14;100.00;101238.91;4119518;28;20026;-72
2023/05/07 04:57:35;;;;;;;3.88;1.90;;;13.90;99.90;;;13.11;100.00;101240.03;4119893;28;20027;-72
2023/05/07 04:59:36;;;;;;;2.72;1.38;;;13.80;99.90;;;13.04;100.00;101236.34;4119500;28;20023;-72
2023/05/07 05:01:37;;;;;;;2.70;1.40;;;13.80;99.90;;;13.03;100.00;101239.97;4134348;28;20034;-72
2023/05/07 05:03:39;;;;;;;2.47;1.67;;;13.70;99.90;;;12.98;100.00;101236.16;4119690;28;20033;-72
2023/05/07 05:05:40;;;;;;;2.92;1.70;;;13.70;99.90;;;13.00;100.00;101244.75;4119555;28;20027;-72
2023/05/07 05:07:40;;;;;;;2.85;1.80;;;13.70;99.90;;;13.02;100.00;101253.41;4119374;28;20046;-72
2023/05/07 05:09:41;;;;;;;2.42;1.50;;;13.70;99.90;;;13.00;100.00;101250.91;4119243;28;20034;-72
2023/05/07 05:11:42;;;;;;;2.78;1.40;;;13.70;99.90;;;13.05;100.00;101258.38;4134489;28;20041;-72
2023/05/07 05:13:43;;;;;;;2.60;1.70;;;13.70;99.90;;;13.10;100.00;101259.59;4119757;28;20475;-72
2023/05/07 05:15:45;;;;;;;2.58;1.52;;;13.70;99.90;;;13.15;100.00;101265.22;4119552;28;20030;-72
2023/05/07 05:17:46;;;;;;;3.55;1.70;;;13.80;99.90;;;13.21;100.00;101272.53;4131887;28;20062;-73
2023/05/07 05:19:47;;;;;;;4.43;1.52;;;13.90;99.90;;;13.23;100.00;101265.25;4114349;28;20129;-72
2023/05/07 05:21:47;;;;;;;4.22;1.63;;;13.90;99.90;;;13.29;100.00;101272.56;4114138;28;20027;-72
2023/05/07 05:23:48;;;;;;;2.70;1.70;;;13.90;99.90;;;13.29;100.00;101261.97;4129842;28;20093;-72
2023/05/07 05:25:49;;;;;;;5.10;2.17;;;13.90;99.90;;;13.28;100.00;101257.66;4122076;28;20046;-72
2023/05/07 05:27:50;;;;;;;3.28;1.60;;;13.90;99.90;;;13.26;100.00;101256.19;4122151;28;20122;-72
2023/05/07 05:29:51;;;;;;;2.13;1.52;;;13.90;99.90;;;13.25;100.00;101257.16;4121225;28;20042;-72
2023/05/07 05:31:52;;;;;;;3.90;1.52;;;13.90;99.90;;;13.19;100.00;101255.16;4122305;28;20019;-72
2023/05/07 05:33:53;;;;;;;2.10;1.27;;;13.90;99.90;;;13.17;100.00;101268.53;4137204;28;20092;-72
2023/05/07 05:35:54;;;;;;;3.38;1.77;;;13.80;99.90;;;13.14;100.00;101266.22;4120782;28;20030;-72
2023/05/07 05:37:55;;;;;;;4.18;1.60;;;13.80;99.90;;;13.17;100.00;101271.19;4137115;28;20080;-72
2023/05/07 05:39:56;;;;;;;2.20;1.40;;;13.80;99.90;;;13.20;100.00;101267.41;4120688;28;20031;-71
2023/05/07 05:41:57;;;;;;;2.35;1.40;;;13.80;99.90;;;13.17;100.00;101268.53;4122030;28;20027;-71
2023/05/07 05:43:57;;;;;;;3.72;1.23;;;13.80;99.90;;;13.18;100.00;101282.63;4120598;28;20046;-72
2023/05/07 05:45:58;;;;;;;2.60;1.40;;;13.80;99.90;;;13.18;100.00;101278.16;4122222;28;20035;-71
2023/05/07 05:48:00;;;;;;;3.28;1.30;;;13.80;99.90;;;13.19;100.00;101292.22;4121976;28;20097;-72
2023/05/07 05:50:01;;;;;;;2.22;1.35;;;13.80;99.90;;;13.16;100.00;101288.09;4136898;28;20034;-72
2023/05/07 05:52:02;;;;;;;2.00;1.10;;;13.80;99.90;;;13.20;100.00;101289.41;4136911;28;20445;-71
2023/05/07 05:54:03;;;;;;;2.78;1.10;;;13.80;99.90;;;13.18;100.00;101286.09;4121806;28;20086;-72
2023/05/07 05:56:04;;;;;;;1.35;1.13;;;13.80;99.90;;;13.20;100.00;101289.41;4136779;28;20027;-72
2023/05/07 05:58:05;;;;;;;3.40;1.75;;;13.80;99.90;;;13.20;100.00;101292.06;4136708;28;20031;-71
2023/05/07 06:00:09;;;;;;;3.58;1.58;;;13.80;99.90;;;13.24;100.00;101293.41;4121847;28;20118;-72
2023/05/07 06:02:09;;;;;;;2.85;1.20;;;13.90;99.90;;;13.29;100.00;101314.94;4136689;28;20041;-72
2023/05/07 06:04:10;;;;;;;2.33;1.50;;;13.90;99.90;;;13.35;100.00;101308.19;4121700;28;20490;-72
2023/05/07 06:06:11;;;;;;;2.42;1.48;;;13.90;99.90;;;13.41;100.00;101317.34;4121534;28;20177;-72
2023/05/07 06:08:12;;;;;;;3.67;1.52;;;14.00;99.90;;;13.49;100.00;101320.84;4136387;28;20038;-72
2023/05/07 06:10:13;;;;;;;3.60;1.30;;;14.10;99.90;;;13.56;100.00;101326.34;4121664;28;20081;-72
2023/05/07 06:12:14;;;;;;;3.50;1.42;;;14.10;99.90;;;13.61;100.00;101330.16;4136732;28;20014;-72
2023/05/07 06:14:15;;;;;;;2.22;1.40;;;14.20;99.90;;;13.67;100.00;101323.38;4121572;28;20030;-72
2023/05/07 06:16:16;;;;;;;2.40;1.30;;;14.20;99.90;;;13.73;100.00;101330.69;4136333;28;20037;-72
2023/05/07 06:18:16;;;;;;;2.15;1.45;;;14.30;99.90;;;13.77;100.00;101324.03;4121744;28;20031;-72
2023/05/07 06:20:17;;;;;;;2.78;1.60;;;14.30;99.90;;;13.92;100.00;101330.38;4136614;28;20474;-72
2023/05/07 06:22:18;;;;;;;3.55;1.65;;;14.50;99.90;;;14.07;100.00;101326.09;4121514;28;20438;-72
2023/05/07 06:24:19;;;;;;;2.20;1.30;;;14.60;99.90;;;14.24;100.00;101337.56;4121417;28;20026;-72
2023/05/07 06:26:20;;;;;;;3.55;1.60;;;14.70;99.90;;;14.43;100.00;101334.59;4120360;28;20066;-72
2023/05/07 06:28:21;;;;;;;1.90;1.27;;;14.90;99.90;;;14.58;100.00;101335.56;4136276;28;20018;-72
2023/05/07 06:30:22;;;;;;;3.70;1.33;;;15.10;99.90;;;15.23;100.00;101336.25;4121326;28;20034;-72
2023/05/07 06:32:23;;;;;;;1.60;1.00;;;15.40;99.90;;;15.73;100.00;101327.09;4135697;28;20121;-72
2023/05/07 06:34:24;;;;;;;1.83;0.95;;;15.80;99.90;;;16.10;100.00;101340.47;4119968;28;20026;-72
2023/05/07 06:36:26;;;;;;;1.77;1.08;;;16.10;99.90;;;16.00;100.00;101334.56;4136209;28;20026;-72
2023/05/07 06:38:26;;;;;;;3.28;1.45;;;16.20;99.90;;;16.02;100.00;101338.72;4119917;28;20026;-71
2023/05/07 06:40:27;;;;;;;1.63;1.20;;;16.30;99.90;;;16.00;100.00;101337.25;4121006;28;20031;-72
2023/05/07 06:42:28;;;;;;;2.60;1.20;;;16.40;99.90;;;15.85;100.00;101352.31;4135805;28;20026;-72
2023/05/07 06:44:29;;;;;;;2.53;1.40;;;16.30;99.90;;;15.65;100.00;101356.41;4119962;28;20086;-72
2023/05/07 06:46:30;;;;;;;3.10;1.80;;;16.20;99.90;;;15.53;100.00;101357.78;4135853;28;20018;-72
2023/05/07 06:48:31;;;;;;;2.92;1.35;;;16.10;99.90;;;15.48;100.00;101360.94;4121052;28;20408;-72
2023/05/07 06:50:32;;;;;;;1.85;1.20;;;16.10;99.90;;;15.35;100.00;101355.34;4120905;28;20038;-72
2023/05/07 06:52:33;;;;;;;1.92;1.42;;;16.00;99.90;;;15.30;100.00;101363.81;4121054;28;20061;-72
2023/05/07 06:54:33;;;;;;;4.18;1.65;;;16.00;99.90;;;15.46;100.00;101361.09;4121006;28;20077;-71
2023/05/07 06:56:34;;;;;;;2.00;1.23;;;16.00;99.90;;;15.45;100.00;101356.78;4120926;28;20022;-72
2023/05/07 06:58:35;;;;;;;2.03;1.27;;;16.10;99.90;;;15.89;100.00;101372.22;4120803;28;20019;-72
2023/05/07 07:00:36;;;;;;;2.65;1.30;;;16.30;99.90;;;15.80;100.00;101365.31;4135777;28;20057;-72
2023/05/07 07:02:37;;;;;;;1.90;1.00;;;16.30;99.90;;;15.88;100.00;101373.22;4120871;28;20030;-71
2023/05/07 07:04:38;;;;;;;2.28;1.08;;;16.30;99.90;;;16.13;100.00;101368.59;4120906;28;20026;-72
2023/05/07 07:06:39;;;;;;;2.45;1.50;;;16.40;99.90;;;16.00;100.00;101348.72;4119284;28;20062;-72
2023/05/07 07:08:40;;;;;;;2.22;0.93;;;16.60;99.90;;;16.26;100.00;101374.16;4119842;28;20034;-72
2023/05/07 07:10:41;;;;;;;2.10;1.17;;;16.70;99.90;;;16.36;100.00;101370.25;4120495;28;20044;-72
2023/05/07 07:12:41;;;;;;;3.40;1.15;;;16.80;99.90;;;16.46;100.00;101377.97;4120669;28;20138;-72
2023/05/07 07:14:42;;;;;;;2.30;1.20;;;16.90;99.90;;;16.30;100.00;101388.78;4135621;28;20026;-72
2023/05/07 07:16:43;;;;;;;1.98;1.08;;;16.90;99.90;;;16.33;100.00;101385.75;4120685;28;20031;-72
2023/05/07 07:18:44;;;;;;;2.10;1.20;;;16.90;99.90;;;16.28;100.00;101394.25;4120620;28;20082;-72
2023/05/07 07:20:45;;;;;;;2.33;1.00;;;16.90;99.90;;;16.26;100.00;101392.78;4120542;28;20058;-71
2023/05/07 07:22:46;;;;;;;1.45;0.73;;;16.80;99.90;;;16.27;100.00;101379.31;4135306;28;20031;-72
2023/05/07 07:24:47;;;;;;;2.20;1.00;;;16.80;99.90;;;16.22;100.00;101381.66;4119323;28;20062;-71
2023/05/07 07:26:48;;;;;;;1.42;0.70;;;16.80;99.90;;;16.36;100.00;101388.06;4119267;28;20487;-71
2023/05/07 07:28:48;;;;;;;1.35;0.88;;;16.80;99.90;;;16.47;100.00;101388.47;4120442;28;20031;-71
2023/05/07 07:30:49;;;;;;;1.98;0.70;;;16.80;99.90;;;16.49;100.00;101385.59;4120423;28;20019;-72
2023/05/07 07:32:51;;;;;;;2.22;0.63;;;16.90;99.90;;;16.56;100.00;101394.59;4119387;28;20022;-72
2023/05/07 07:34:52;;;;;;;1.83;0.88;;;17.10;99.90;;;16.41;100.00;101394.50;4120595;28;20062;-72
2023/05/07 07:36:53;;;;;;;1.73;0.88;;;17.20;99.90;;;16.51;100.00;101395.09;4120180;28;20026;-72
2023/05/07 07:38:54;;;;;;;1.98;1.00;;;17.20;99.90;;;16.96;100.00;101396.06;4120387;28;20486;-72
2023/05/07 07:40:55;;;;;;;1.00;0.60;;;17.40;99.90;;;17.24;100.00;101394.44;4135133;28;20048;-72
2023/05/07 07:42:57;;;;;;;2.22;1.27;;;17.70;99.90;;;17.68;100.00;101397.94;4119080;28;20035;-72
2023/05/07 07:44:57;;;;;;;1.65;0.75;;;18.00;99.90;;;18.14;100.00;101393.13;4119299;28;20057;-72
2023/05/07 07:46:58;;;;;;;1.35;0.88;;;18.30;99.90;;;18.51;100.00;101400.13;4120186;28;20027;-72
2023/05/07 07:48:59;;;;;;;1.75;0.63;;;18.70;99.90;;;18.72;100.00;101396.59;4135334;28;20553;-72
2023/05/07 07:51:00;;;;;;;2.97;0.85;;;19.00;99.90;;;18.89;100.00;101397.97;4135200;28;20030;-72
2023/05/07 07:53:02;;;;;;;1.02;0.55;;;19.30;99.90;;;18.92;100.00;101384.19;4120175;28;20027;-72
2023/05/07 07:55:03;;;;;;;1.83;0.82;;;19.30;99.90;;;19.21;100.00;101396.53;4119896;28;20027;-72
2023/05/07 07:57:05;;;;;;;1.20;0.80;;;19.50;99.90;;;19.07;100.00;101387.59;4135021;28;20034;-72
2023/05/07 07:59:06;;;;;;;1.10;0.80;;;19.50;99.90;;;18.96;99.39;101398.84;4135126;28;20497;-72
2023/05/07 08:01:07;;;;;;;0.90;0.50;;;19.40;99.90;;;18.70;100.00;101375.38;4120050;28;20090;-72
2023/05/07 08:03:11;;;;;;;1.23;0.50;;;19.40;99.90;;;18.93;100.00;101390.38;4134884;28;20026;-71
2023/05/07 08:05:12;;;;;;;0.75;0.50;;;19.40;99.90;;;18.97;98.83;101389.78;4119886;28;20034;-71
2023/05/07 08:07:13;;;;;;;0.95;0.50;;;19.40;99.90;;;19.03;98.45;101390.84;4134930;28;20034;-71
2023/05/07 08:09:14;;;;;;;2.05;0.60;;;19.40;99.90;;;19.01;97.65;101401.75;4118729;28;20039;-72
2023/05/07 08:11:15;;;;;;;1.42;0.75;;;19.40;99.90;;;19.07;97.73;101405.50;4119846;28;20045;-72
2023/05/07 08:13:17;;;;;;;1.05;0.68;;;19.50;99.90;;;19.36;98.43;101407.94;4120064;28;20055;-72
2023/05/07 08:15:18;;;;;;;1.48;0.75;;;19.60;99.90;;;19.53;94.83;101400.47;4118848;28;20106;-72
2023/05/07 08:17:21;;;;;;;1.65;0.60;;;19.80;99.90;;;19.77;93.95;101407.97;4119966;28;20118;-72